sensor_id;sensor_type;location;lat;lon;timestamp;temperature;humidity
14170;DHT22;63889;50.596;8.690;2023-01-24T00:01:25;3.90;99.90
14170;DHT22;63889;50.596;8.690;2023-01-24T00:03:51;3.80;99.90
14170;DHT22;63889;50.596;8.690;2023-01-24T00:06:16;3.60;99.90
14170;DHT22;63889;50.596;8.690;2023-01-24T00:08:42;3.70;99.90
14170;DHT22;63889;50.596;8.690;2023-01-24T00:11:10;3.60;99.90
14170;DHT22;63889;50.596;8.690;2023-01-24T00:13:36;3.60;99.90
14170;DHT22;63889;50.596;8.690;2023-01-24T00:16:19;3.60;99.90
14170;DHT22;63889;50.596;8.690;2023-01-24T00:18:45;3.60;99.90
14170;DHT22;63889;50.596;8.690;2023-01-24T00:21:23;3.80;99.90
14170;DHT22;63889;50.596;8.690;2023-01-24T00:23:51;3.90;99.90
14170;DHT22;63889;50.596;8.690;2023-01-24T00:26:18;3.90;99.90
14170;DHT22;63889;50.596;8.690;2023-01-24T00:28:44;4.00;99.90
14170;DHT22;63889;50.596;8.690;2023-01-24T00:31:10;3.90;99.90
14170;DHT22;63889;50.596;8.690;2023-01-24T00:33:36;3.90;99.90
14170;DHT22;63889;50.596;8.690;2023-01-24T00:36:02;4.00;99.90
14170;DHT22;63889;50.596;8.690;2023-01-24T00:38:29;4.00;99.90
14170;DHT22;63889;50.596;8.690;2023-01-24T00:40:55;3.90;99.90
14170;DHT22;63889;50.596;8.690;2023-01-24T00:43:21;3.70;99.90
14170;DHT22;63889;50.596;8.690;2023-01-24T00:45:46;3.70;99.90
14170;DHT22;63889;50.596;8.690;2023-01-24T00:48:12;3.60;99.90
14170;DHT22;63889;50.596;8.690;2023-01-24T00:50:38;3.80;99.90
14170;DHT22;63889;50.596;8.690;2023-01-24T00:53:04;3.80;99.90
14170;DHT22;63889;50.596;8.690;2023-01-24T00:55:30;3.80;99.90
14170;DHT22;63889;50.596;8.690;2023-01-24T00:57:56;3.90;99.90
14170;DHT22;63889;50.596;8.690;2023-01-24T01:00:22;3.80;99.90
14170;DHT22;63889;50.596;8.690;2023-01-24T01:02:49;3.80;99.90
14170;DHT22;63889;50.596;8.690;2023-01-24T01:05:16;3.90;99.90
14170;DHT22;63889;50.596;8.690;2023-01-24T01:07:41;4.00;99.90
14170;DHT22;63889;50.596;8.690;2023-01-24T01:10:07;3.90;99.90
14170;DHT22;63889;50.596;8.690;2023-01-24T01:12:33;4.00;99.90
14170;DHT22;63889;50.596;8.690;2023-01-24T01:14:58;4.00;99.90
14170;DHT22;63889;50.596;8.690;2023-01-24T01:17:24;3.90;99.90
14170;DHT22;63889;50.596;8.690;2023-01-24T01:19:53;3.80;99.90
14170;DHT22;63889;50.596;8.690;2023-01-24T01:22:19;3.80;99.90
14170;DHT22;63889;50.596;8.690;2023-01-24T01:24:45;3.90;99.90
14170;DHT22;63889;50.596;8.690;2023-01-24T01:27:11;3.80;99.90
14170;DHT22;63889;50.596;8.690;2023-01-24T01:29:37;3.80;99.90
14170;DHT22;63889;50.596;8.690;2023-01-24T01:32:02;3.70;99.90
14170;DHT22;63889;50.596;8.690;2023-01-24T01:34:28;3.80;99.90
14170;DHT22;63889;50.596;8.690;2023-01-24T01:36:53;3.70;99.90
14170;DHT22;63889;50.596;8.690;2023-01-24T01:39:19;3.70;99.90
14170;DHT22;63889;50.596;8.690;2023-01-24T01:41:45;3.60;99.90
14170;DHT22;63889;50.596;8.690;2023-01-24T01:44:18;3.70;99.90
14170;DHT22;63889;50.596;8.690;2023-01-24T01:47:04;3.60;99.90
14170;DHT22;63889;50.596;8.690;2023-01-24T01:49:30;3.50;99.90
14170;DHT22;63889;50.596;8.690;2023-01-24T01:52:02;3.50;99.90
14170;DHT22;63889;50.596;8.690;2023-01-24T01:54:31;3.30;99.90
14170;DHT22;63889;50.596;8.690;2023-01-24T01:59:37;3.50;99.90
14170;DHT22;63889;50.596;8.690;2023-01-24T02:02:20;3.60;99.90
14170;DHT22;63889;50.596;8.690;2023-01-24T02:04:50;3.50;99.90
14170;DHT22;63889;50.596;8.690;2023-01-24T02:07:24;3.40;99.90
14170;DHT22;63889;50.596;8.690;2023-01-24T02:09:53;3.30;99.90
14170;DHT22;63889;50.596;8.690;2023-01-24T02:12:32;3.30;99.90
14170;DHT22;63889;50.596;8.690;2023-01-24T02:15:06;3.50;99.90
14170;DHT22;63889;50.596;8.690;2023-01-24T02:17:51;3.50;99.90
14170;DHT22;63889;50.596;8.690;2023-01-24T02:20:28;3.60;99.90
14170;DHT22;63889;50.596;8.690;2023-01-24T02:28:24;3.70;99.90
14170;DHT22;63889;50.596;8.690;2023-01-24T02:30:50;3.90;99.90
14170;DHT22;63889;50.596;8.690;2023-01-24T02:33:18;3.70;99.90
14170;DHT22;63889;50.596;8.690;2023-01-24T02:35:44;3.70;99.90
14170;DHT22;63889;50.596;8.690;2023-01-24T02:40:41;3.90;99.90
14170;DHT22;63889;50.596;8.690;2023-01-24T02:43:07;3.70;99.90
14170;DHT22;63889;50.596;8.690;2023-01-24T02:45:36;3.80;99.90
14170;DHT22;63889;50.596;8.690;2023-01-24T02:48:02;3.60;99.90
14170;DHT22;63889;50.596;8.690;2023-01-24T02:50:30;3.50;99.90
14170;DHT22;63889;50.596;8.690;2023-01-24T02:53:19;3.50;99.90
14170;DHT22;63889;50.596;8.690;2023-01-24T02:56:04;3.60;99.90
14170;DHT22;63889;50.596;8.690;2023-01-24T02:58:48;3.40;99.90
14170;DHT22;63889;50.596;8.690;2023-01-24T03:01:15;3.50;99.90
14170;DHT22;63889;50.596;8.690;2023-01-24T03:03:42;3.40;99.90
14170;DHT22;63889;50.596;8.690;2023-01-24T03:06:08;3.50;99.90
14170;DHT22;63889;50.596;8.690;2023-01-24T03:08:35;3.50;99.90
14170;DHT22;63889;50.596;8.690;2023-01-24T03:11:01;3.50;99.90
14170;DHT22;63889;50.596;8.690;2023-01-24T03:13:27;3.40;99.90
14170;DHT22;63889;50.596;8.690;2023-01-24T03:16:11;3.30;99.90
14170;DHT22;63889;50.596;8.690;2023-01-24T03:18:55;3.50;99.90
14170;DHT22;63889;50.596;8.690;2023-01-24T03:21:39;3.40;99.90
14170;DHT22;63889;50.596;8.690;2023-01-24T03:24:24;3.40;99.90
14170;DHT22;63889;50.596;8.690;2023-01-24T03:27:08;3.50;99.90
14170;DHT22;63889;50.596;8.690;2023-01-24T03:29:53;3.40;99.90
14170;DHT22;63889;50.596;8.690;2023-01-24T03:32:37;3.40;99.90
14170;DHT22;63889;50.596;8.690;2023-01-24T03:35:22;3.50;99.90
14170;DHT22;63889;50.596;8.690;2023-01-24T03:37:47;3.60;99.90
14170;DHT22;63889;50.596;8.690;2023-01-24T03:40:31;3.60;99.90
14170;DHT22;63889;50.596;8.690;2023-01-24T03:42:59;3.50;99.90
14170;DHT22;63889;50.596;8.690;2023-01-24T03:45:30;3.50;99.90
14170;DHT22;63889;50.596;8.690;2023-01-24T03:47:57;3.50;99.90
14170;DHT22;63889;50.596;8.690;2023-01-24T03:50:34;3.50;99.90
14170;DHT22;63889;50.596;8.690;2023-01-24T03:53:20;3.60;99.90
14170;DHT22;63889;50.596;8.690;2023-01-24T03:55:50;3.60;99.90
14170;DHT22;63889;50.596;8.690;2023-01-24T03:58:15;3.70;99.90
14170;DHT22;63889;50.596;8.690;2023-01-24T04:00:41;3.70;99.90
14170;DHT22;63889;50.596;8.690;2023-01-24T04:03:07;3.60;99.90
14170;DHT22;63889;50.596;8.690;2023-01-24T04:05:33;3.70;99.90
14170;DHT22;63889;50.596;8.690;2023-01-24T04:07:59;3.70;99.90
14170;DHT22;63889;50.596;8.690;2023-01-24T04:10:25;3.80;99.90
14170;DHT22;63889;50.596;8.690;2023-01-24T04:12:51;3.90;99.90
14170;DHT22;63889;50.596;8.690;2023-01-24T04:15:19;3.80;99.90
14170;DHT22;63889;50.596;8.690;2023-01-24T04:17:45;3.80;99.90
14170;DHT22;63889;50.596;8.690;2023-01-24T04:20:11;3.70;99.90
14170;DHT22;63889;50.596;8.690;2023-01-24T04:22:36;3.60;99.90
14170;DHT22;63889;50.596;8.690;2023-01-24T04:25:02;3.40;99.90
14170;DHT22;63889;50.596;8.690;2023-01-24T04:27:28;3.40;99.90
14170;DHT22;63889;50.596;8.690;2023-01-24T04:29:53;3.40;99.90
14170;DHT22;63889;50.596;8.690;2023-01-24T04:32:19;3.40;99.90
14170;DHT22;63889;50.596;8.690;2023-01-24T04:34:44;3.40;99.90
14170;DHT22;63889;50.596;8.690;2023-01-24T04:37:10;3.30;99.90
14170;DHT22;63889;50.596;8.690;2023-01-24T04:39:36;3.40;99.90
14170;DHT22;63889;50.596;8.690;2023-01-24T04:42:01;3.30;99.90
14170;DHT22;63889;50.596;8.690;2023-01-24T04:44:27;3.30;99.90
14170;DHT22;63889;50.596;8.690;2023-01-24T04:46:52;3.30;99.90
14170;DHT22;63889;50.596;8.690;2023-01-24T04:49:18;3.20;99.90
14170;DHT22;63889;50.596;8.690;2023-01-24T04:51:46;3.20;99.90
14170;DHT22;63889;50.596;8.690;2023-01-24T04:54:11;3.20;99.90
14170;DHT22;63889;50.596;8.690;2023-01-24T04:56:37;3.10;99.90
14170;DHT22;63889;50.596;8.690;2023-01-24T04:59:03;3.20;99.90
14170;DHT22;63889;50.596;8.690;2023-01-24T05:01:28;3.20;99.90
14170;DHT22;63889;50.596;8.690;2023-01-24T05:03:54;3.30;99.90
14170;DHT22;63889;50.596;8.690;2023-01-24T05:06:26;3.30;99.90
14170;DHT22;63889;50.596;8.690;2023-01-24T05:08:53;3.30;99.90
14170;DHT22;63889;50.596;8.690;2023-01-24T05:11:18;3.20;99.90
14170;DHT22;63889;50.596;8.690;2023-01-24T05:13:44;3.20;99.90
14170;DHT22;63889;50.596;8.690;2023-01-24T05:16:09;3.40;99.90
14170;DHT22;63889;50.596;8.690;2023-01-24T05:18:35;3.40;99.90
14170;DHT22;63889;50.596;8.690;2023-01-24T05:21:09;3.50;99.90
14170;DHT22;63889;50.596;8.690;2023-01-24T05:23:35;3.40;99.90
14170;DHT22;63889;50.596;8.690;2023-01-24T05:26:02;3.30;99.90
14170;DHT22;63889;50.596;8.690;2023-01-24T05:28:28;3.40;99.90
14170;DHT22;63889;50.596;8.690;2023-01-24T05:31:00;3.30;99.90
14170;DHT22;63889;50.596;8.690;2023-01-24T05:33:26;3.30;99.90
14170;DHT22;63889;50.596;8.690;2023-01-24T05:36:04;3.40;99.90
14170;DHT22;63889;50.596;8.690;2023-01-24T05:38:30;3.50;99.90
14170;DHT22;63889;50.596;8.690;2023-01-24T05:41:04;3.40;99.90
14170;DHT22;63889;50.596;8.690;2023-01-24T05:43:30;3.30;99.90
14170;DHT22;63889;50.596;8.690;2023-01-24T05:46:01;3.20;99.90
14170;DHT22;63889;50.596;8.690;2023-01-24T05:48:27;3.30;99.90
14170;DHT22;63889;50.596;8.690;2023-01-24T05:51:01;3.30;99.90
14170;DHT22;63889;50.596;8.690;2023-01-24T05:53:28;3.20;99.90
14170;DHT22;63889;50.596;8.690;2023-01-24T05:55:58;3.20;99.90
14170;DHT22;63889;50.596;8.690;2023-01-24T05:58:25;3.20;99.90
14170;DHT22;63889;50.596;8.690;2023-01-24T06:00:51;3.20;99.90
14170;DHT22;63889;50.596;8.690;2023-01-24T06:03:17;3.40;99.90
14170;DHT22;63889;50.596;8.690;2023-01-24T06:05:51;3.20;99.90
14170;DHT22;63889;50.596;8.690;2023-01-24T06:08:18;3.20;99.90
14170;DHT22;63889;50.596;8.690;2023-01-24T06:10:44;3.20;99.90
14170;DHT22;63889;50.596;8.690;2023-01-24T06:13:10;3.10;99.90
14170;DHT22;63889;50.596;8.690;2023-01-24T06:15:36;3.10;99.90
14170;DHT22;63889;50.596;8.690;2023-01-24T06:18:03;3.10;99.90
14170;DHT22;63889;50.596;8.690;2023-01-24T06:20:28;3.00;99.90
14170;DHT22;63889;50.596;8.690;2023-01-24T06:22:59;3.20;99.90
14170;DHT22;63889;50.596;8.690;2023-01-24T06:25:27;3.20;99.90
14170;DHT22;63889;50.596;8.690;2023-01-24T06:27:53;3.30;99.90
14170;DHT22;63889;50.596;8.690;2023-01-24T06:30:19;3.50;99.90
14170;DHT22;63889;50.596;8.690;2023-01-24T06:38:24;3.40;99.90
14170;DHT22;63889;50.596;8.690;2023-01-24T06:40:55;3.40;99.90
14170;DHT22;63889;50.596;8.690;2023-01-24T06:43:22;3.40;99.90
14170;DHT22;63889;50.596;8.690;2023-01-24T06:45:48;3.30;99.90
14170;DHT22;63889;50.596;8.690;2023-01-24T06:48:13;3.20;99.90
14170;DHT22;63889;50.596;8.690;2023-01-24T06:50:39;3.20;99.90
14170;DHT22;63889;50.596;8.690;2023-01-24T06:53:04;3.30;99.90
14170;DHT22;63889;50.596;8.690;2023-01-24T06:55:30;3.30;99.90
14170;DHT22;63889;50.596;8.690;2023-01-24T06:57:57;3.20;99.90
14170;DHT22;63889;50.596;8.690;2023-01-24T07:00:23;3.10;99.90
14170;DHT22;63889;50.596;8.690;2023-01-24T07:03:00;3.00;99.90
14170;DHT22;63889;50.596;8.690;2023-01-24T07:05:27;3.20;99.90
14170;DHT22;63889;50.596;8.690;2023-01-24T07:07:52;3.20;99.90
14170;DHT22;63889;50.596;8.690;2023-01-24T07:10:18;3.10;99.90
14170;DHT22;63889;50.596;8.690;2023-01-24T07:12:44;3.00;99.90
14170;DHT22;63889;50.596;8.690;2023-01-24T07:15:10;2.90;99.90
14170;DHT22;63889;50.596;8.690;2023-01-24T07:17:36;2.90;99.90
14170;DHT22;63889;50.596;8.690;2023-01-24T07:20:02;2.80;99.90
14170;DHT22;63889;50.596;8.690;2023-01-24T07:22:27;2.80;99.90
14170;DHT22;63889;50.596;8.690;2023-01-24T07:24:53;2.90;99.90
14170;DHT22;63889;50.596;8.690;2023-01-24T07:27:19;2.80;99.90
14170;DHT22;63889;50.596;8.690;2023-01-24T07:29:45;3.00;99.90
14170;DHT22;63889;50.596;8.690;2023-01-24T07:32:11;3.10;99.90
14170;DHT22;63889;50.596;8.690;2023-01-24T07:34:38;3.20;99.90
14170;DHT22;63889;50.596;8.690;2023-01-24T07:37:06;3.30;99.90
14170;DHT22;63889;50.596;8.690;2023-01-24T07:39:32;3.30;99.90
14170;DHT22;63889;50.596;8.690;2023-01-24T07:41:57;3.20;99.90
14170;DHT22;63889;50.596;8.690;2023-01-24T07:44:23;3.10;99.90
14170;DHT22;63889;50.596;8.690;2023-01-24T07:46:48;3.00;99.90
14170;DHT22;63889;50.596;8.690;2023-01-24T07:49:14;3.00;99.90
14170;DHT22;63889;50.596;8.690;2023-01-24T07:51:40;3.10;99.90
14170;DHT22;63889;50.596;8.690;2023-01-24T07:54:05;3.10;99.90
14170;DHT22;63889;50.596;8.690;2023-01-24T07:56:31;3.10;99.90
14170;DHT22;63889;50.596;8.690;2023-01-24T07:58:57;3.10;99.90
14170;DHT22;63889;50.596;8.690;2023-01-24T08:01:24;3.20;99.90
14170;DHT22;63889;50.596;8.690;2023-01-24T08:03:54;3.20;99.90
14170;DHT22;63889;50.596;8.690;2023-01-24T08:06:19;3.00;99.90
14170;DHT22;63889;50.596;8.690;2023-01-24T08:08:45;3.10;99.90
14170;DHT22;63889;50.596;8.690;2023-01-24T08:11:10;3.00;99.90
14170;DHT22;63889;50.596;8.690;2023-01-24T08:13:38;3.00;99.90
14170;DHT22;63889;50.596;8.690;2023-01-24T08:16:04;3.20;99.90
14170;DHT22;63889;50.596;8.690;2023-01-24T08:18:30;3.20;99.90
14170;DHT22;63889;50.596;8.690;2023-01-24T08:20:56;3.30;99.90
14170;DHT22;63889;50.596;8.690;2023-01-24T08:23:22;3.30;99.90
14170;DHT22;63889;50.596;8.690;2023-01-24T08:25:47;3.30;99.90
14170;DHT22;63889;50.596;8.690;2023-01-24T08:28:13;3.30;99.90
14170;DHT22;63889;50.596;8.690;2023-01-24T08:30:38;3.20;99.90
14170;DHT22;63889;50.596;8.690;2023-01-24T08:33:05;3.30;99.90
14170;DHT22;63889;50.596;8.690;2023-01-24T08:35:32;3.10;99.90
14170;DHT22;63889;50.596;8.690;2023-01-24T08:37:58;3.10;99.90
14170;DHT22;63889;50.596;8.690;2023-01-24T08:40:24;3.20;99.90
14170;DHT22;63889;50.596;8.690;2023-01-24T08:42:50;3.20;99.90
14170;DHT22;63889;50.596;8.690;2023-01-24T08:45:16;3.20;99.90
14170;DHT22;63889;50.596;8.690;2023-01-24T08:47:41;3.30;99.90
14170;DHT22;63889;50.596;8.690;2023-01-24T08:50:08;3.50;99.90
14170;DHT22;63889;50.596;8.690;2023-01-24T08:52:34;3.50;99.90
14170;DHT22;63889;50.596;8.690;2023-01-24T08:54:59;3.60;99.90
14170;DHT22;63889;50.596;8.690;2023-01-24T08:57:25;3.50;99.90
14170;DHT22;63889;50.596;8.690;2023-01-24T08:59:50;3.40;99.90
14170;DHT22;63889;50.596;8.690;2023-01-24T09:02:16;3.40;99.90
14170;DHT22;63889;50.596;8.690;2023-01-24T09:04:42;3.40;99.90
14170;DHT22;63889;50.596;8.690;2023-01-24T09:07:10;3.30;99.90
14170;DHT22;63889;50.596;8.690;2023-01-24T09:09:35;3.30;99.90
14170;DHT22;63889;50.596;8.690;2023-01-24T09:12:01;3.40;99.90
14170;DHT22;63889;50.596;8.690;2023-01-24T09:14:26;3.50;99.90
14170;DHT22;63889;50.596;8.690;2023-01-24T09:16:52;3.50;99.90
14170;DHT22;63889;50.596;8.690;2023-01-24T09:19:17;3.60;99.90
14170;DHT22;63889;50.596;8.690;2023-01-24T09:21:43;3.50;99.90
14170;DHT22;63889;50.596;8.690;2023-01-24T09:24:10;3.50;99.90
14170;DHT22;63889;50.596;8.690;2023-01-24T09:26:35;3.50;99.90
14170;DHT22;63889;50.596;8.690;2023-01-24T09:29:01;3.50;99.90
14170;DHT22;63889;50.596;8.690;2023-01-24T09:31:26;3.30;99.90
14170;DHT22;63889;50.596;8.690;2023-01-24T09:33:52;3.50;99.90
14170;DHT22;63889;50.596;8.690;2023-01-24T09:36:18;3.60;99.90
14170;DHT22;63889;50.596;8.690;2023-01-24T09:38:43;3.40;99.90
14170;DHT22;63889;50.596;8.690;2023-01-24T09:44:34;3.50;99.90
14170;DHT22;63889;50.596;8.690;2023-01-24T09:46:56;3.30;99.90
14170;DHT22;63889;50.596;8.690;2023-01-24T09:52:02;3.40;99.90
14170;DHT22;63889;50.596;8.690;2023-01-24T09:54:36;3.60;99.90
14170;DHT22;63889;50.596;8.690;2023-01-24T10:00:24;3.60;99.90
14170;DHT22;63889;50.596;8.690;2023-01-24T10:02:50;3.60;99.90
14170;DHT22;63889;50.596;8.690;2023-01-24T10:05:16;3.50;99.90
14170;DHT22;63889;50.596;8.690;2023-01-24T10:10:48;3.40;99.90
14170;DHT22;63889;50.596;8.690;2023-01-24T10:19:39;3.60;99.90
14170;DHT22;63889;50.596;8.690;2023-01-24T10:22:33;3.40;99.90
14170;DHT22;63889;50.596;8.690;2023-01-24T10:25:27;3.40;99.90
14170;DHT22;63889;50.596;8.690;2023-01-24T10:27:56;3.40;99.90
14170;DHT22;63889;50.596;8.690;2023-01-24T10:30:45;3.30;99.90
14170;DHT22;63889;50.596;8.690;2023-01-24T10:33:17;3.30;99.90
14170;DHT22;63889;50.596;8.690;2023-01-24T10:36:00;3.40;99.90
14170;DHT22;63889;50.596;8.690;2023-01-24T10:38:27;3.40;99.90
14170;DHT22;63889;50.596;8.690;2023-01-24T10:40:56;3.60;99.90
14170;DHT22;63889;50.596;8.690;2023-01-24T10:43:26;3.60;99.90
14170;DHT22;63889;50.596;8.690;2023-01-24T10:46:14;3.60;99.90
14170;DHT22;63889;50.596;8.690;2023-01-24T10:48:45;3.70;99.90
14170;DHT22;63889;50.596;8.690;2023-01-24T10:51:18;3.80;99.90
14170;DHT22;63889;50.596;8.690;2023-01-24T10:53:44;3.70;99.90
14170;DHT22;63889;50.596;8.690;2023-01-24T10:56:12;3.60;99.90
14170;DHT22;63889;50.596;8.690;2023-01-24T10:58:59;3.60;99.90
14170;DHT22;63889;50.596;8.690;2023-01-24T11:01:37;3.50;99.90
14170;DHT22;63889;50.596;8.690;2023-01-24T11:04:17;3.50;99.90
14170;DHT22;63889;50.596;8.690;2023-01-24T11:06:46;3.60;99.90
14170;DHT22;63889;50.596;8.690;2023-01-24T11:09:14;3.60;99.90
14170;DHT22;63889;50.596;8.690;2023-01-24T11:11:50;3.70;99.90
14170;DHT22;63889;50.596;8.690;2023-01-24T11:14:36;3.60;99.90
14170;DHT22;63889;50.596;8.690;2023-01-24T11:17:01;3.60;99.90
14170;DHT22;63889;50.596;8.690;2023-01-24T11:19:28;3.60;99.90
14170;DHT22;63889;50.596;8.690;2023-01-24T11:22:00;3.60;99.90
14170;DHT22;63889;50.596;8.690;2023-01-24T11:24:27;3.80;99.90
14170;DHT22;63889;50.596;8.690;2023-01-24T11:26:57;3.70;99.90
14170;DHT22;63889;50.596;8.690;2023-01-24T11:29:23;3.70;99.90
14170;DHT22;63889;50.596;8.690;2023-01-24T11:31:57;3.70;99.90
14170;DHT22;63889;50.596;8.690;2023-01-24T11:37:29;4.00;99.90
14170;DHT22;63889;50.596;8.690;2023-01-24T11:48:21;3.70;99.90
14170;DHT22;63889;50.596;8.690;2023-01-24T11:54:14;3.60;99.90
14170;DHT22;63889;50.596;8.690;2023-01-24T11:56:32;3.70;99.90
14170;DHT22;63889;50.596;8.690;2023-01-24T11:59:16;3.80;99.90
14170;DHT22;63889;50.596;8.690;2023-01-24T12:04:54;3.60;99.90
14170;DHT22;63889;50.596;8.690;2023-01-24T12:07:46;3.70;99.90
14170;DHT22;63889;50.596;8.690;2023-01-24T12:10:28;3.90;99.90
14170;DHT22;63889;50.596;8.690;2023-01-24T12:13:05;3.90;99.90
14170;DHT22;63889;50.596;8.690;2023-01-24T12:16:00;3.80;99.90
14170;DHT22;63889;50.596;8.690;2023-01-24T12:21:32;3.60;99.90
14170;DHT22;63889;50.596;8.690;2023-01-24T12:24:02;3.60;99.90
14170;DHT22;63889;50.596;8.690;2023-01-24T12:26:53;3.50;99.90
14170;DHT22;63889;50.596;8.690;2023-01-24T12:32:03;3.70;99.90
14170;DHT22;63889;50.596;8.690;2023-01-24T12:34:49;3.70;99.90
14170;DHT22;63889;50.596;8.690;2023-01-24T12:43:04;3.60;99.90
14170;DHT22;63889;50.596;8.690;2023-01-24T12:45:53;3.50;99.90
14170;DHT22;63889;50.596;8.690;2023-01-24T12:48:29;3.50;99.90
14170;DHT22;63889;50.596;8.690;2023-01-24T12:51:08;3.50;99.90
14170;DHT22;63889;50.596;8.690;2023-01-24T12:56:33;3.90;99.90
14170;DHT22;63889;50.596;8.690;2023-01-24T12:59:01;3.90;99.90
14170;DHT22;63889;50.596;8.690;2023-01-24T13:01:49;4.00;99.90
14170;DHT22;63889;50.596;8.690;2023-01-24T13:07:31;3.90;99.90
14170;DHT22;63889;50.596;8.690;2023-01-24T13:12:45;3.90;99.90
14170;DHT22;63889;50.596;8.690;2023-01-24T13:17:58;3.80;99.90
14170;DHT22;63889;50.596;8.690;2023-01-24T13:24:02;3.70;99.90
14170;DHT22;63889;50.596;8.690;2023-01-24T13:26:52;3.70;99.90
14170;DHT22;63889;50.596;8.690;2023-01-24T13:29:40;3.50;99.90
14170;DHT22;63889;50.596;8.690;2023-01-24T13:32:18;3.40;99.90
14170;DHT22;63889;50.596;8.690;2023-01-24T13:34:53;3.30;99.90
14170;DHT22;63889;50.596;8.690;2023-01-24T13:37:26;3.20;99.90
14170;DHT22;63889;50.596;8.690;2023-01-24T13:42:34;3.50;99.90
14170;DHT22;63889;50.596;8.690;2023-01-24T13:47:50;3.70;99.90
14170;DHT22;63889;50.596;8.690;2023-01-24T13:50:22;3.90;99.90
14170;DHT22;63889;50.596;8.690;2023-01-24T13:52:49;3.90;99.90
14170;DHT22;63889;50.596;8.690;2023-01-24T14:00:54;3.80;99.90
14170;DHT22;63889;50.596;8.690;2023-01-24T14:03:32;3.80;99.90
14170;DHT22;63889;50.596;8.690;2023-01-24T14:06:16;4.00;99.90
14170;DHT22;63889;50.596;8.690;2023-01-24T14:09:12;3.90;99.90
14170;DHT22;63889;50.596;8.690;2023-01-24T14:11:39;3.80;99.90
14170;DHT22;63889;50.596;8.690;2023-01-24T14:14:33;3.60;99.90
14170;DHT22;63889;50.596;8.690;2023-01-24T14:17:02;3.50;99.90
14170;DHT22;63889;50.596;8.690;2023-01-24T14:19:34;3.40;99.90
14170;DHT22;63889;50.596;8.690;2023-01-24T14:22:16;3.50;99.90
14170;DHT22;63889;50.596;8.690;2023-01-24T14:24:58;3.40;99.90
14170;DHT22;63889;50.596;8.690;2023-01-24T14:27:37;3.40;99.90
14170;DHT22;63889;50.596;8.690;2023-01-24T14:32:38;3.40;99.90
14170;DHT22;63889;50.596;8.690;2023-01-24T14:35:31;3.50;99.90
14170;DHT22;63889;50.596;8.690;2023-01-24T14:38:16;3.40;99.90
14170;DHT22;63889;50.596;8.690;2023-01-24T14:40:47;3.50;99.90
14170;DHT22;63889;50.596;8.690;2023-01-24T14:43:14;3.40;99.90
14170;DHT22;63889;50.596;8.690;2023-01-24T14:45:39;3.40;99.90
14170;DHT22;63889;50.596;8.690;2023-01-24T14:48:09;3.40;99.90
14170;DHT22;63889;50.596;8.690;2023-01-24T14:50:37;3.40;99.90
14170;DHT22;63889;50.596;8.690;2023-01-24T14:53:22;3.40;99.90
14170;DHT22;63889;50.596;8.690;2023-01-24T14:55:51;3.20;99.90
14170;DHT22;63889;50.596;8.690;2023-01-24T14:58:26;3.40;99.90
14170;DHT22;63889;50.596;8.690;2023-01-24T15:00:57;3.30;99.90
14170;DHT22;63889;50.596;8.690;2023-01-24T15:03:25;3.30;99.90
14170;DHT22;63889;50.596;8.690;2023-01-24T15:08:22;3.30;99.90
14170;DHT22;63889;50.596;8.690;2023-01-24T15:11:20;3.30;99.90
14170;DHT22;63889;50.596;8.690;2023-01-24T15:13:50;3.20;99.90
14170;DHT22;63889;50.596;8.690;2023-01-24T15:16:23;3.30;99.90
14170;DHT22;63889;50.596;8.690;2023-01-24T15:18:54;3.40;99.90
14170;DHT22;63889;50.596;8.690;2023-01-24T15:21:29;3.30;99.90
14170;DHT22;63889;50.596;8.690;2023-01-24T15:23:56;3.30;99.90
14170;DHT22;63889;50.596;8.690;2023-01-24T15:28:56;3.20;99.90
14170;DHT22;63889;50.596;8.690;2023-01-24T15:31:28;3.10;99.90
14170;DHT22;63889;50.596;8.690;2023-01-24T15:34:00;3.30;99.90
14170;DHT22;63889;50.596;8.690;2023-01-24T15:38:53;3.40;99.90
14170;DHT22;63889;50.596;8.690;2023-01-24T15:41:22;3.50;99.90
14170;DHT22;63889;50.596;8.690;2023-01-24T15:44:03;3.60;99.90
14170;DHT22;63889;50.596;8.690;2023-01-24T15:46:35;3.60;99.90
14170;DHT22;63889;50.596;8.690;2023-01-24T15:52:18;3.60;99.90
14170;DHT22;63889;50.596;8.690;2023-01-24T15:54:47;3.40;99.90
14170;DHT22;63889;50.596;8.690;2023-01-24T15:57:31;3.30;99.90
14170;DHT22;63889;50.596;8.690;2023-01-24T15:59:59;3.20;99.90
14170;DHT22;63889;50.596;8.690;2023-01-24T16:02:26;3.30;99.90
14170;DHT22;63889;50.596;8.690;2023-01-24T16:04:51;3.30;99.90
14170;DHT22;63889;50.596;8.690;2023-01-24T16:07:17;3.40;99.90
14170;DHT22;63889;50.596;8.690;2023-01-24T16:09:44;3.20;99.90
14170;DHT22;63889;50.596;8.690;2023-01-24T16:12:13;3.20;99.90
14170;DHT22;63889;50.596;8.690;2023-01-24T16:14:46;3.40;99.90
14170;DHT22;63889;50.596;8.690;2023-01-24T16:17:13;3.40;99.90
14170;DHT22;63889;50.596;8.690;2023-01-24T16:19:39;3.50;99.90
14170;DHT22;63889;50.596;8.690;2023-01-24T16:22:04;3.40;99.90
14170;DHT22;63889;50.596;8.690;2023-01-24T16:24:30;3.40;99.90
14170;DHT22;63889;50.596;8.690;2023-01-24T16:26:59;3.40;99.90
14170;DHT22;63889;50.596;8.690;2023-01-24T16:29:28;3.50;99.90
14170;DHT22;63889;50.596;8.690;2023-01-24T16:31:55;3.50;99.90
14170;DHT22;63889;50.596;8.690;2023-01-24T16:34:21;3.50;99.90
14170;DHT22;63889;50.596;8.690;2023-01-24T16:36:47;3.50;99.90
14170;DHT22;63889;50.596;8.690;2023-01-24T16:39:18;3.50;99.90
14170;DHT22;63889;50.596;8.690;2023-01-24T16:41:45;3.40;99.90
14170;DHT22;63889;50.596;8.690;2023-01-24T16:44:11;3.40;99.90
14170;DHT22;63889;50.596;8.690;2023-01-24T16:46:38;3.50;99.90
14170;DHT22;63889;50.596;8.690;2023-01-24T16:49:03;3.70;99.90
14170;DHT22;63889;50.596;8.690;2023-01-24T16:51:29;3.60;99.90
14170;DHT22;63889;50.596;8.690;2023-01-24T16:53:55;3.60;99.90
14170;DHT22;63889;50.596;8.690;2023-01-24T16:56:21;3.80;99.90
14170;DHT22;63889;50.596;8.690;2023-01-24T16:58:46;3.80;99.90
14170;DHT22;63889;50.596;8.690;2023-01-24T17:01:12;3.70;99.90
14170;DHT22;63889;50.596;8.690;2023-01-24T17:03:39;3.70;99.90
14170;DHT22;63889;50.596;8.690;2023-01-24T17:06:09;3.70;99.90
14170;DHT22;63889;50.596;8.690;2023-01-24T17:08:35;3.70;99.90
14170;DHT22;63889;50.596;8.690;2023-01-24T17:11:03;3.80;99.90
14170;DHT22;63889;50.596;8.690;2023-01-24T17:13:29;3.80;99.90
14170;DHT22;63889;50.596;8.690;2023-01-24T17:15:54;3.70;99.90
14170;DHT22;63889;50.596;8.690;2023-01-24T17:18:35;3.80;99.90
14170;DHT22;63889;50.596;8.690;2023-01-24T17:21:02;3.70;99.90
14170;DHT22;63889;50.596;8.690;2023-01-24T17:23:29;3.60;99.90
14170;DHT22;63889;50.596;8.690;2023-01-24T17:26:12;3.60;99.90
14170;DHT22;63889;50.596;8.690;2023-01-24T17:28:39;3.70;99.90
14170;DHT22;63889;50.596;8.690;2023-01-24T17:31:16;3.70;99.90
14170;DHT22;63889;50.596;8.690;2023-01-24T17:33:42;3.70;99.90
14170;DHT22;63889;50.596;8.690;2023-01-24T17:36:08;3.80;99.90
14170;DHT22;63889;50.596;8.690;2023-01-24T17:38:37;3.60;99.90
14170;DHT22;63889;50.596;8.690;2023-01-24T17:41:02;3.60;99.90
14170;DHT22;63889;50.596;8.690;2023-01-24T17:43:29;3.70;99.90
14170;DHT22;63889;50.596;8.690;2023-01-24T17:45:57;3.70;99.90